sensor_id;sensor_type;location;lat;lon;timestamp;P1;durP1;ratioP1;P2;durP2;ratioP2
31770;SDS011;18343;50.152;8.182;2023-12-20T00:00:04;1.10;;;0.90;;
31770;SDS011;18343;50.152;8.182;2023-12-20T00:03:09;0.90;;;0.90;;
31770;SDS011;18343;50.152;8.182;2023-12-20T00:06:12;1.93;;;1.77;;
31770;SDS011;18343;50.152;8.182;2023-12-20T00:09:16;1.13;;;0.93;;
31770;SDS011;18343;50.152;8.182;2023-12-20T00:12:21;6.60;;;1.58;;
31770;SDS011;18343;50.152;8.182;2023-12-20T00:15:25;0.70;;;0.70;;
31770;SDS011;18343;50.152;8.182;2023-12-20T00:18:29;2.45;;;0.73;;
31770;SDS011;18343;50.152;8.182;2023-12-20T00:21:34;1.20;;;1.00;;
31770;SDS011;18343;50.152;8.182;2023-12-20T00:24:38;1.42;;;0.80;;
31770;SDS011;18343;50.152;8.182;2023-12-20T00:27:42;3.53;;;0.90;;
31770;SDS011;18343;50.152;8.182;2023-12-20T00:30:46;2.03;;;0.70;;
31770;SDS011;18343;50.152;8.182;2023-12-20T00:33:49;1.38;;;0.98;;
31770;SDS011;18343;50.152;8.182;2023-12-20T00:36:53;0.67;;;0.67;;
31770;SDS011;18343;50.152;8.182;2023-12-20T00:39:56;2.33;;;0.98;;
31770;SDS011;18343;50.152;8.182;2023-12-20T00:43:02;0.83;;;0.50;;
31770;SDS011;18343;50.152;8.182;2023-12-20T00:46:06;0.50;;;0.50;;
31770;SDS011;18343;50.152;8.182;2023-12-20T00:49:10;3.25;;;0.60;;
31770;SDS011;18343;50.152;8.182;2023-12-20T00:52:14;0.50;;;0.50;;
31770;SDS011;18343;50.152;8.182;2023-12-20T00:55:19;0.60;;;0.60;;
31770;SDS011;18343;50.152;8.182;2023-12-20T00:58:23;1.63;;;0.57;;
31770;SDS011;18343;50.152;8.182;2023-12-20T01:01:27;0.40;;;0.40;;
31770;SDS011;18343;50.152;8.182;2023-12-20T01:04:30;2.33;;;0.63;;
31770;SDS011;18343;50.152;8.182;2023-12-20T01:07:34;0.43;;;0.43;;
31770;SDS011;18343;50.152;8.182;2023-12-20T01:10:38;0.75;;;0.55;;
31770;SDS011;18343;50.152;8.182;2023-12-20T01:13:43;1.83;;;0.70;;
31770;SDS011;18343;50.152;8.182;2023-12-20T01:16:46;0.50;;;0.50;;
31770;SDS011;18343;50.152;8.182;2023-12-20T01:19:50;0.90;;;0.83;;
31770;SDS011;18343;50.152;8.182;2023-12-20T01:22:53;1.15;;;0.70;;
31770;SDS011;18343;50.152;8.182;2023-12-20T01:25:57;0.60;;;0.60;;
31770;SDS011;18343;50.152;8.182;2023-12-20T01:29:02;0.68;;;0.68;;
31770;SDS011;18343;50.152;8.182;2023-12-20T01:32:06;3.15;;;0.70;;
31770;SDS011;18343;50.152;8.182;2023-12-20T01:35:10;0.82;;;0.70;;
31770;SDS011;18343;50.152;8.182;2023-12-20T01:38:13;0.63;;;0.63;;
31770;SDS011;18343;50.152;8.182;2023-12-20T01:41:17;0.57;;;0.52;;
31770;SDS011;18343;50.152;8.182;2023-12-20T01:44:22;0.63;;;0.60;;
31770;SDS011;18343;50.152;8.182;2023-12-20T01:47:25;0.82;;;0.70;;
31770;SDS011;18343;50.152;8.182;2023-12-20T01:50:29;0.70;;;0.70;;
31770;SDS011;18343;50.152;8.182;2023-12-20T01:53:34;1.02;;;0.93;;
31770;SDS011;18343;50.152;8.182;2023-12-20T01:56:38;0.80;;;0.80;;
31770;SDS011;18343;50.152;8.182;2023-12-20T01:59:44;0.93;;;0.90;;
31770;SDS011;18343;50.152;8.182;2023-12-20T02:02:48;0.98;;;0.90;;
31770;SDS011;18343;50.152;8.182;2023-12-20T02:05:53;0.88;;;0.82;;
31770;SDS011;18343;50.152;8.182;2023-12-20T02:08:57;0.98;;;0.90;;
31770;SDS011;18343;50.152;8.182;2023-12-20T02:12:01;1.23;;;1.10;;
31770;SDS011;18343;50.152;8.182;2023-12-20T02:15:07;1.60;;;1.30;;
31770;SDS011;18343;50.152;8.182;2023-12-20T02:18:10;1.95;;;1.30;;
31770;SDS011;18343;50.152;8.182;2023-12-20T02:21:14;3.97;;;2.43;;
31770;SDS011;18343;50.152;8.182;2023-12-20T02:24:20;1.63;;;1.33;;
31770;SDS011;18343;50.152;8.182;2023-12-20T02:27:23;1.85;;;1.20;;
31770;SDS011;18343;50.152;8.182;2023-12-20T02:30:27;1.37;;;1.27;;
31770;SDS011;18343;50.152;8.182;2023-12-20T02:33:30;1.65;;;1.55;;
31770;SDS011;18343;50.152;8.182;2023-12-20T02:36:34;1.63;;;1.20;;
31770;SDS011;18343;50.152;8.182;2023-12-20T02:39:39;1.70;;;1.50;;
31770;SDS011;18343;50.152;8.182;2023-12-20T02:42:42;1.30;;;1.20;;
31770;SDS011;18343;50.152;8.182;2023-12-20T02:45:46;1.23;;;1.13;;
31770;SDS011;18343;50.152;8.182;2023-12-20T02:48:49;1.77;;;1.33;;
31770;SDS011;18343;50.152;8.182;2023-12-20T02:51:53;1.48;;;1.35;;
31770;SDS011;18343;50.152;8.182;2023-12-20T02:54:59;1.92;;;1.38;;
31770;SDS011;18343;50.152;8.182;2023-12-20T02:58:03;3.00;;;1.40;;
31770;SDS011;18343;50.152;8.182;2023-12-20T03:01:06;1.80;;;1.60;;
31770;SDS011;18343;50.152;8.182;2023-12-20T03:04:10;4.28;;;1.60;;
31770;SDS011;18343;50.152;8.182;2023-12-20T03:07:14;2.00;;;1.45;;
31770;SDS011;18343;50.152;8.182;2023-12-20T03:10:19;2.00;;;1.60;;
31770;SDS011;18343;50.152;8.182;2023-12-20T03:13:22;2.20;;;1.60;;
31770;SDS011;18343;50.152;8.182;2023-12-20T03:16:26;2.30;;;1.80;;
31770;SDS011;18343;50.152;8.182;2023-12-20T03:19:30;2.17;;;1.80;;
31770;SDS011;18343;50.152;8.182;2023-12-20T03:22:33;3.30;;;1.53;;
31770;SDS011;18343;50.152;8.182;2023-12-20T03:25:39;1.80;;;1.60;;
31770;SDS011;18343;50.152;8.182;2023-12-20T03:28:42;2.17;;;1.50;;
31770;SDS011;18343;50.152;8.182;2023-12-20T03:31:46;1.80;;;1.60;;
31770;SDS011;18343;50.152;8.182;2023-12-20T03:34:49;1.45;;;1.00;;
31770;SDS011;18343;50.152;8.182;2023-12-20T03:37:53;1.30;;;1.10;;
31770;SDS011;18343;50.152;8.182;2023-12-20T03:40:58;1.37;;;1.27;;
31770;SDS011;18343;50.152;8.182;2023-12-20T03:44:01;1.52;;;1.40;;
31770;SDS011;18343;50.152;8.182;2023-12-20T03:47:04;2.20;;;1.40;;
31770;SDS011;18343;50.152;8.182;2023-12-20T03:50:08;1.50;;;1.40;;
31770;SDS011;18343;50.152;8.182;2023-12-20T03:53:11;1.63;;;1.45;;
31770;SDS011;18343;50.152;8.182;2023-12-20T03:56:16;3.22;;;2.80;;
31770;SDS011;18343;50.152;8.182;2023-12-20T03:59:19;4.63;;;3.50;;
31770;SDS011;18343;50.152;8.182;2023-12-20T04:02:23;8.53;;;4.50;;
31770;SDS011;18343;50.152;8.182;2023-12-20T04:05:26;7.03;;;3.92;;
31770;SDS011;18343;50.152;8.182;2023-12-20T04:08:30;5.47;;;3.90;;
31770;SDS011;18343;50.152;8.182;2023-12-20T04:11:35;3.95;;;2.17;;
31770;SDS011;18343;50.152;8.182;2023-12-20T04:14:39;8.30;;;4.10;;
31770;SDS011;18343;50.152;8.182;2023-12-20T04:17:43;6.90;;;4.37;;
31770;SDS011;18343;50.152;8.182;2023-12-20T04:20:46;10.35;;;5.22;;
31770;SDS011;18343;50.152;8.182;2023-12-20T04:23:50;7.20;;;4.82;;
31770;SDS011;18343;50.152;8.182;2023-12-20T04:26:55;8.50;;;4.50;;
31770;SDS011;18343;50.152;8.182;2023-12-20T04:29:59;7.55;;;3.90;;
31770;SDS011;18343;50.152;8.182;2023-12-20T04:33:02;4.73;;;2.67;;
31770;SDS011;18343;50.152;8.182;2023-12-20T04:36:06;6.13;;;2.92;;
31770;SDS011;18343;50.152;8.182;2023-12-20T04:39:11;7.43;;;3.38;;
31770;SDS011;18343;50.152;8.182;2023-12-20T04:42:17;10.15;;;2.40;;
31770;SDS011;18343;50.152;8.182;2023-12-20T04:45:20;14.85;;;8.25;;
31770;SDS011;18343;50.152;8.182;2023-12-20T04:48:23;9.20;;;7.83;;
31770;SDS011;18343;50.152;8.182;2023-12-20T04:51:27;12.55;;;8.00;;
31770;SDS011;18343;50.152;8.182;2023-12-20T04:54:30;15.68;;;5.88;;
31770;SDS011;18343;50.152;8.182;2023-12-20T04:57:35;13.00;;;11.73;;
31770;SDS011;18343;50.152;8.182;2023-12-20T05:00:39;14.10;;;12.32;;
31770;SDS011;18343;50.152;8.182;2023-12-20T05:03:43;8.07;;;3.80;;
31770;SDS011;18343;50.152;8.182;2023-12-20T05:06:47;14.50;;;4.43;;
31770;SDS011;18343;50.152;8.182;2023-12-20T05:09:50;8.02;;;2.60;;
31770;SDS011;18343;50.152;8.182;2023-12-20T05:12:55;13.10;;;9.23;;
31770;SDS011;18343;50.152;8.182;2023-12-20T05:15:58;12.27;;;9.02;;
31770;SDS011;18343;50.152;8.182;2023-12-20T05:19:02;7.25;;;5.30;;
31770;SDS011;18343;50.152;8.182;2023-12-20T05:22:06;8.50;;;3.30;;
31770;SDS011;18343;50.152;8.182;2023-12-20T05:25:10;10.82;;;2.60;;
31770;SDS011;18343;50.152;8.182;2023-12-20T05:28:15;5.28;;;2.03;;
31770;SDS011;18343;50.152;8.182;2023-12-20T05:31:18;12.25;;;2.97;;
31770;SDS011;18343;50.152;8.182;2023-12-20T05:34:21;7.05;;;1.77;;
31770;SDS011;18343;50.152;8.182;2023-12-20T05:37:25;9.38;;;3.88;;
31770;SDS011;18343;50.152;8.182;2023-12-20T05:40:29;12.10;;;4.23;;
31770;SDS011;18343;50.152;8.182;2023-12-20T05:43:39;16.15;;;4.78;;
31770;SDS011;18343;50.152;8.182;2023-12-20T05:46:42;8.48;;;4.30;;
31770;SDS011;18343;50.152;8.182;2023-12-20T05:49:46;12.73;;;5.00;;
31770;SDS011;18343;50.152;8.182;2023-12-20T05:52:50;14.13;;;4.65;;
31770;SDS011;18343;50.152;8.182;2023-12-20T05:55:53;11.57;;;4.10;;
31770;SDS011;18343;50.152;8.182;2023-12-20T05:58:58;11.40;;;3.97;;
31770;SDS011;18343;50.152;8.182;2023-12-20T06:02:02;10.50;;;3.78;;
31770;SDS011;18343;50.152;8.182;2023-12-20T06:08:10;17.17;;;5.28;;
31770;SDS011;18343;50.152;8.182;2023-12-20T06:11:14;9.45;;;5.38;;
31770;SDS011;18343;50.152;8.182;2023-12-20T06:14:18;12.57;;;4.38;;
31770;SDS011;18343;50.152;8.182;2023-12-20T06:17:22;8.85;;;3.38;;
31770;SDS011;18343;50.152;8.182;2023-12-20T06:20:26;14.30;;;3.60;;
31770;SDS011;18343;50.152;8.182;2023-12-20T06:23:29;10.23;;;3.53;;
31770;SDS011;18343;50.152;8.182;2023-12-20T06:26:33;8.23;;;3.53;;
31770;SDS011;18343;50.152;8.182;2023-12-20T06:29:38;7.03;;;3.03;;
31770;SDS011;18343;50.152;8.182;2023-12-20T06:32:41;13.48;;;4.05;;
31770;SDS011;18343;50.152;8.182;2023-12-20T06:35:45;12.40;;;3.63;;
31770;SDS011;18343;50.152;8.182;2023-12-20T06:38:49;8.45;;;3.42;;
31770;SDS011;18343;50.152;8.182;2023-12-20T06:41:52;8.02;;;3.35;;
31770;SDS011;18343;50.152;8.182;2023-12-20T06:44:57;5.97;;;3.50;;
31770;SDS011;18343;50.152;8.182;2023-12-20T06:48:01;8.00;;;2.85;;
31770;SDS011;18343;50.152;8.182;2023-12-20T06:51:24;12.38;;;3.80;;
31770;SDS011;18343;50.152;8.182;2023-12-20T06:54:28;11.70;;;5.50;;
31770;SDS011;18343;50.152;8.182;2023-12-20T06:57:31;19.67;;;7.80;;
31770;SDS011;18343;50.152;8.182;2023-12-20T07:00:36;16.88;;;5.03;;
31770;SDS011;18343;50.152;8.182;2023-12-20T07:03:40;7.45;;;3.92;;
31770;SDS011;18343;50.152;8.182;2023-12-20T07:06:44;8.80;;;4.57;;
31770;SDS011;18343;50.152;8.182;2023-12-20T07:09:47;10.68;;;2.20;;
31770;SDS011;18343;50.152;8.182;2023-12-20T07:12:51;6.80;;;2.40;;
31770;SDS011;18343;50.152;8.182;2023-12-20T07:15:56;12.83;;;3.13;;
31770;SDS011;18343;50.152;8.182;2023-12-20T07:18:59;6.25;;;2.85;;
31770;SDS011;18343;50.152;8.182;2023-12-20T07:22:04;9.48;;;3.80;;
31770;SDS011;18343;50.152;8.182;2023-12-20T07:25:09;14.13;;;5.70;;
31770;SDS011;18343;50.152;8.182;2023-12-20T07:28:12;13.35;;;3.25;;
31770;SDS011;18343;50.152;8.182;2023-12-20T07:31:17;5.43;;;2.67;;
31770;SDS011;18343;50.152;8.182;2023-12-20T07:34:21;11.07;;;3.20;;
31770;SDS011;18343;50.152;8.182;2023-12-20T07:37:25;9.52;;;2.80;;
31770;SDS011;18343;50.152;8.182;2023-12-20T07:40:28;11.30;;;2.80;;
31770;SDS011;18343;50.152;8.182;2023-12-20T07:43:33;11.32;;;2.83;;
31770;SDS011;18343;50.152;8.182;2023-12-20T07:46:38;13.05;;;3.38;;
31770;SDS011;18343;50.152;8.182;2023-12-20T07:49:41;7.07;;;2.45;;
31770;SDS011;18343;50.152;8.182;2023-12-20T07:52:48;9.60;;;2.65;;
31770;SDS011;18343;50.152;8.182;2023-12-20T07:55:51;7.47;;;2.95;;
31770;SDS011;18343;50.152;8.182;2023-12-20T07:58:55;10.20;;;2.63;;
31770;SDS011;18343;50.152;8.182;2023-12-20T08:02:00;9.95;;;3.05;;
31770;SDS011;18343;50.152;8.182;2023-12-20T08:05:04;14.63;;;2.75;;
31770;SDS011;18343;50.152;8.182;2023-12-20T08:08:07;17.23;;;2.83;;
31770;SDS011;18343;50.152;8.182;2023-12-20T08:11:11;15.10;;;2.63;;
31770;SDS011;18343;50.152;8.182;2023-12-20T08:17:24;8.20;;;2.58;;
31770;SDS011;18343;50.152;8.182;2023-12-20T08:20:27;12.85;;;2.28;;
31770;SDS011;18343;50.152;8.182;2023-12-20T08:23:31;14.07;;;2.77;;
31770;SDS011;18343;50.152;8.182;2023-12-20T08:26:35;11.85;;;2.67;;
31770;SDS011;18343;50.152;8.182;2023-12-20T08:29:39;10.70;;;2.63;;
31770;SDS011;18343;50.152;8.182;2023-12-20T08:32:44;6.15;;;2.58;;
31770;SDS011;18343;50.152;8.182;2023-12-20T08:35:48;14.32;;;3.05;;
31770;SDS011;18343;50.152;8.182;2023-12-20T08:38:51;12.00;;;2.25;;
31770;SDS011;18343;50.152;8.182;2023-12-20T08:41:55;6.90;;;2.40;;
31770;SDS011;18343;50.152;8.182;2023-12-20T08:44:59;10.98;;;2.95;;
31770;SDS011;18343;50.152;8.182;2023-12-20T08:48:04;8.55;;;2.65;;
31770;SDS011;18343;50.152;8.182;2023-12-20T08:51:10;9.18;;;3.00;;
31770;SDS011;18343;50.152;8.182;2023-12-20T08:54:13;10.02;;;2.80;;
31770;SDS011;18343;50.152;8.182;2023-12-20T08:57:17;18.83;;;2.95;;
31770;SDS011;18343;50.152;8.182;2023-12-20T09:00:22;9.98;;;3.00;;
31770;SDS011;18343;50.152;8.182;2023-12-20T09:03:27;6.73;;;2.30;;
31770;SDS011;18343;50.152;8.182;2023-12-20T09:06:30;9.75;;;2.83;;
31770;SDS011;18343;50.152;8.182;2023-12-20T09:09:34;8.55;;;2.90;;
31770;SDS011;18343;50.152;8.182;2023-12-20T09:12:38;6.47;;;3.17;;
31770;SDS011;18343;50.152;8.182;2023-12-20T09:15:41;15.50;;;2.95;;
31770;SDS011;18343;50.152;8.182;2023-12-20T09:18:46;13.23;;;2.95;;
31770;SDS011;18343;50.152;8.182;2023-12-20T09:21:50;14.23;;;3.85;;
31770;SDS011;18343;50.152;8.182;2023-12-20T09:24:53;9.68;;;3.13;;
31770;SDS011;18343;50.152;8.182;2023-12-20T09:27:57;11.65;;;3.30;;
31770;SDS011;18343;50.152;8.182;2023-12-20T09:31:03;16.02;;;3.72;;
31770;SDS011;18343;50.152;8.182;2023-12-20T09:34:08;15.70;;;3.92;;
31770;SDS011;18343;50.152;8.182;2023-12-20T09:37:12;11.93;;;4.35;;
31770;SDS011;18343;50.152;8.182;2023-12-20T09:40:17;17.92;;;3.58;;
31770;SDS011;18343;50.152;8.182;2023-12-20T09:43:23;13.60;;;4.10;;
31770;SDS011;18343;50.152;8.182;2023-12-20T09:46:27;13.95;;;3.92;;
31770;SDS011;18343;50.152;8.182;2023-12-20T09:49:38;14.27;;;4.47;;
31770;SDS011;18343;50.152;8.182;2023-12-20T09:52:42;14.63;;;4.70;;
31770;SDS011;18343;50.152;8.182;2023-12-20T09:55:48;24.02;;;5.25;;
31770;SDS011;18343;50.152;8.182;2023-12-20T09:58:51;8.25;;;4.28;;
31770;SDS011;18343;50.152;8.182;2023-12-20T10:01:56;11.43;;;5.15;;
31770;SDS011;18343;50.152;8.182;2023-12-20T10:05:02;14.43;;;4.68;;
31770;SDS011;18343;50.152;8.182;2023-12-20T10:08:08;15.73;;;3.88;;
31770;SDS011;18343;50.152;8.182;2023-12-20T10:11:12;11.65;;;4.68;;
31770;SDS011;18343;50.152;8.182;2023-12-20T10:14:15;15.70;;;5.35;;
31770;SDS011;18343;50.152;8.182;2023-12-20T10:17:19;21.15;;;4.43;;
31770;SDS011;18343;50.152;8.182;2023-12-20T10:20:26;14.23;;;4.60;;
31770;SDS011;18343;50.152;8.182;2023-12-20T10:23:31;9.60;;;3.90;;
31770;SDS011;18343;50.152;8.182;2023-12-20T10:26:35;15.77;;;4.18;;
31770;SDS011;18343;50.152;8.182;2023-12-20T10:29:38;14.27;;;4.10;;
31770;SDS011;18343;50.152;8.182;2023-12-20T10:32:42;10.30;;;3.57;;
31770;SDS011;18343;50.152;8.182;2023-12-20T10:35:47;16.52;;;4.10;;
31770;SDS011;18343;50.152;8.182;2023-12-20T10:38:50;12.15;;;4.05;;
31770;SDS011;18343;50.152;8.182;2023-12-20T10:41:55;10.23;;;3.70;;
31770;SDS011;18343;50.152;8.182;2023-12-20T10:44:59;13.57;;;4.00;;
31770;SDS011;18343;50.152;8.182;2023-12-20T10:48:03;14.75;;;4.50;;
31770;SDS011;18343;50.152;8.182;2023-12-20T10:51:09;12.20;;;4.13;;
31770;SDS011;18343;50.152;8.182;2023-12-20T10:54:13;11.13;;;6.00;;
31770;SDS011;18343;50.152;8.182;2023-12-20T10:57:17;12.37;;;6.13;;
31770;SDS011;18343;50.152;8.182;2023-12-20T11:00:21;10.60;;;5.75;;
31770;SDS011;18343;50.152;8.182;2023-12-20T11:03:26;14.38;;;5.93;;
31770;SDS011;18343;50.152;8.182;2023-12-20T11:06:38;18.42;;;5.45;;
31770;SDS011;18343;50.152;8.182;2023-12-20T11:09:55;8.57;;;4.10;;
31770;SDS011;18343;50.152;8.182;2023-12-20T11:13:05;10.40;;;3.85;;
31770;SDS011;18343;50.152;8.182;2023-12-20T11:16:14;16.95;;;4.07;;
31770;SDS011;18343;50.152;8.182;2023-12-20T11:19:18;11.43;;;2.97;;
31770;SDS011;18343;50.152;8.182;2023-12-20T11:22:23;12.52;;;3.05;;
31770;SDS011;18343;50.152;8.182;2023-12-20T11:25:28;10.13;;;2.85;;
31770;SDS011;18343;50.152;8.182;2023-12-20T11:28:34;13.38;;;4.15;;
31770;SDS011;18343;50.152;8.182;2023-12-20T11:31:39;8.20;;;4.45;;
31770;SDS011;18343;50.152;8.182;2023-12-20T11:34:45;8.73;;;2.70;;
31770;SDS011;18343;50.152;8.182;2023-12-20T11:37:50;13.38;;;3.30;;
31770;SDS011;18343;50.152;8.182;2023-12-20T11:40:54;9.98;;;3.40;;
31770;SDS011;18343;50.152;8.182;2023-12-20T11:43:58;16.23;;;3.23;;
31770;SDS011;18343;50.152;8.182;2023-12-20T11:47:01;9.07;;;3.67;;
31770;SDS011;18343;50.152;8.182;2023-12-20T11:50:05;9.82;;;2.85;;
31770;SDS011;18343;50.152;8.182;2023-12-20T11:53:11;9.50;;;3.42;;
31770;SDS011;18343;50.152;8.182;2023-12-20T11:56:14;13.38;;;2.95;;
31770;SDS011;18343;50.152;8.182;2023-12-20T11:59:18;17.08;;;7.28;;
31770;SDS011;18343;50.152;8.182;2023-12-20T12:02:22;11.15;;;2.97;;
31770;SDS011;18343;50.152;8.182;2023-12-20T12:05:25;8.88;;;2.95;;
31770;SDS011;18343;50.152;8.182;2023-12-20T12:08:30;9.80;;;3.33;;
31770;SDS011;18343;50.152;8.182;2023-12-20T12:11:33;7.82;;;2.47;;
31770;SDS011;18343;50.152;8.182;2023-12-20T12:14:37;14.13;;;2.67;;
31770;SDS011;18343;50.152;8.182;2023-12-20T12:17:41;6.68;;;2.30;;
31770;SDS011;18343;50.152;8.182;2023-12-20T12:20:45;7.40;;;2.23;;
31770;SDS011;18343;50.152;8.182;2023-12-20T12:23:50;9.55;;;2.67;;
31770;SDS011;18343;50.152;8.182;2023-12-20T12:26:56;12.10;;;3.00;;
31770;SDS011;18343;50.152;8.182;2023-12-20T12:30:00;6.18;;;1.90;;
31770;SDS011;18343;50.152;8.182;2023-12-20T12:33:11;11.68;;;2.78;;
31770;SDS011;18343;50.152;8.182;2023-12-20T12:36:15;10.10;;;2.33;;
31770;SDS011;18343;50.152;8.182;2023-12-20T12:39:20;10.23;;;2.60;;
31770;SDS011;18343;50.152;8.182;2023-12-20T12:42:26;12.70;;;2.75;;
31770;SDS011;18343;50.152;8.182;2023-12-20T12:45:29;10.30;;;2.30;;
31770;SDS011;18343;50.152;8.182;2023-12-20T12:48:33;9.57;;;2.75;;
31770;SDS011;18343;50.152;8.182;2023-12-20T12:51:37;16.80;;;3.40;;
31770;SDS011;18343;50.152;8.182;2023-12-20T12:54:42;15.57;;;3.27;;
31770;SDS011;18343;50.152;8.182;2023-12-20T12:57:46;8.82;;;2.70;;
31770;SDS011;18343;50.152;8.182;2023-12-20T13:00:50;14.13;;;3.37;;
31770;SDS011;18343;50.152;8.182;2023-12-20T13:03:53;6.20;;;2.58;;
31770;SDS011;18343;50.152;8.182;2023-12-20T13:06:57;11.52;;;3.42;;
31770;SDS011;18343;50.152;8.182;2023-12-20T13:10:02;14.13;;;3.15;;
31770;SDS011;18343;50.152;8.182;2023-12-20T13:13:07;9.80;;;3.17;;
31770;SDS011;18343;50.152;8.182;2023-12-20T13:16:17;10.25;;;3.47;;
31770;SDS011;18343;50.152;8.182;2023-12-20T13:19:20;15.65;;;4.45;;
31770;SDS011;18343;50.152;8.182;2023-12-20T13:22:24;12.65;;;3.55;;
31770;SDS011;18343;50.152;8.182;2023-12-20T13:25:29;7.55;;;2.40;;
31770;SDS011;18343;50.152;8.182;2023-12-20T13:28:33;9.60;;;2.70;;
31770;SDS011;18343;50.152;8.182;2023-12-20T13:31:38;14.77;;;4.35;;
31770;SDS011;18343;50.152;8.182;2023-12-20T13:34:42;12.00;;;3.70;;
31770;SDS011;18343;50.152;8.182;2023-12-20T13:40:59;8.20;;;2.92;;
31770;SDS011;18343;50.152;8.182;2023-12-20T13:44:02;12.32;;;3.20;;
31770;SDS011;18343;50.152;8.182;2023-12-20T13:47:06;8.73;;;2.80;;
31770;SDS011;18343;50.152;8.182;2023-12-20T13:50:10;7.53;;;2.57;;
31770;SDS011;18343;50.152;8.182;2023-12-20T13:53:15;10.60;;;2.85;;
31770;SDS011;18343;50.152;8.182;2023-12-20T13:56:23;10.07;;;2.70;;
31770;SDS011;18343;50.152;8.182;2023-12-20T13:59:26;11.48;;;5.13;;
31770;SDS011;18343;50.152;8.182;2023-12-20T14:02:29;10.52;;;3.70;;
31770;SDS011;18343;50.152;8.182;2023-12-20T14:05:33;8.43;;;2.60;;
31770;SDS011;18343;50.152;8.182;2023-12-20T14:11:44;6.75;;;2.25;;
31770;SDS011;18343;50.152;8.182;2023-12-20T14:14:47;6.60;;;2.17;;
31770;SDS011;18343;50.152;8.182;2023-12-20T14:17:51;6.38;;;2.35;;
31770;SDS011;18343;50.152;8.182;2023-12-20T14:20:55;6.70;;;2.42;;
31770;SDS011;18343;50.152;8.182;2023-12-20T14:23:59;9.65;;;2.92;;
31770;SDS011;18343;50.152;8.182;2023-12-20T14:27:04;9.80;;;2.57;;
31770;SDS011;18343;50.152;8.182;2023-12-20T14:30:08;7.75;;;2.50;;
31770;SDS011;18343;50.152;8.182;2023-12-20T14:33:12;10.93;;;2.17;;
31770;SDS011;18343;50.152;8.182;2023-12-20T14:36:16;11.30;;;2.30;;
31770;SDS011;18343;50.152;8.182;2023-12-20T14:39:20;6.22;;;2.17;;
31770;SDS011;18343;50.152;8.182;2023-12-20T14:42:25;11.35;;;2.00;;
31770;SDS011;18343;50.152;8.182;2023-12-20T14:45:28;6.68;;;2.08;;
31770;SDS011;18343;50.152;8.182;2023-12-20T14:48:32;5.38;;;2.20;;
31770;SDS011;18343;50.152;8.182;2023-12-20T14:51:35;14.05;;;2.63;;
31770;SDS011;18343;50.152;8.182;2023-12-20T14:54:38;6.82;;;2.20;;
31770;SDS011;18343;50.152;8.182;2023-12-20T14:57:44;4.13;;;1.93;;
31770;SDS011;18343;50.152;8.182;2023-12-20T15:00:47;11.55;;;2.10;;
31770;SDS011;18343;50.152;8.182;2023-12-20T15:03:56;4.95;;;1.80;;
31770;SDS011;18343;50.152;8.182;2023-12-20T15:07:00;5.35;;;1.45;;
31770;SDS011;18343;50.152;8.182;2023-12-20T15:10:04;14.25;;;2.38;;
31770;SDS011;18343;50.152;8.182;2023-12-20T15:13:09;6.15;;;2.00;;
31770;SDS011;18343;50.152;8.182;2023-12-20T15:16:13;6.68;;;1.83;;
31770;SDS011;18343;50.152;8.182;2023-12-20T15:19:17;8.63;;;2.58;;
31770;SDS011;18343;50.152;8.182;2023-12-20T15:22:21;6.18;;;2.00;;
31770;SDS011;18343;50.152;8.182;2023-12-20T15:25:24;13.60;;;2.40;;
31770;SDS011;18343;50.152;8.182;2023-12-20T15:28:30;9.55;;;2.25;;
31770;SDS011;18343;50.152;8.182;2023-12-20T15:31:34;6.72;;;2.35;;
31770;SDS011;18343;50.152;8.182;2023-12-20T15:34:37;7.33;;;2.07;;
31770;SDS011;18343;50.152;8.182;2023-12-20T15:37:41;11.75;;;2.28;;
31770;SDS011;18343;50.152;8.182;2023-12-20T15:40:45;10.00;;;2.85;;
31770;SDS011;18343;50.152;8.182;2023-12-20T15:43:50;10.57;;;2.28;;
31770;SDS011;18343;50.152;8.182;2023-12-20T15:46:55;6.38;;;2.13;;
31770;SDS011;18343;50.152;8.182;2023-12-20T15:49:58;10.07;;;2.08;;
31770;SDS011;18343;50.152;8.182;2023-12-20T15:53:01;5.93;;;2.30;;
31770;SDS011;18343;50.152;8.182;2023-12-20T15:56:06;12.68;;;2.03;;
31770;SDS011;18343;50.152;8.182;2023-12-20T15:59:11;8.88;;;2.13;;
31770;SDS011;18343;50.152;8.182;2023-12-20T16:02:15;5.65;;;2.28;;
31770;SDS011;18343;50.152;8.182;2023-12-20T16:05:18;8.52;;;2.28;;
31770;SDS011;18343;50.152;8.182;2023-12-20T16:08:22;5.63;;;2.50;;
31770;SDS011;18343;50.152;8.182;2023-12-20T16:11:25;11.82;;;2.38;;
31770;SDS011;18343;50.152;8.182;2023-12-20T16:14:30;10.00;;;3.13;;
31770;SDS011;18343;50.152;8.182;2023-12-20T16:17:34;15.10;;;2.72;;
31770;SDS011;18343;50.152;8.182;2023-12-20T16:20:37;7.17;;;2.43;;
31770;SDS011;18343;50.152;8.182;2023-12-20T16:23:41;9.30;;;2.90;;
31770;SDS011;18343;50.152;8.182;2023-12-20T16:26:45;4.35;;;2.13;;
31770;SDS011;18343;50.152;8.182;2023-12-20T16:29:50;11.70;;;2.55;;
31770;SDS011;18343;50.152;8.182;2023-12-20T16:32:54;9.50;;;2.63;;
31770;SDS011;18343;50.152;8.182;2023-12-20T16:35:57;11.68;;;3.25;;
31770;SDS011;18343;50.152;8.182;2023-12-20T16:39:00;8.90;;;2.90;;
31770;SDS011;18343;50.152;8.182;2023-12-20T16:42:04;7.97;;;2.73;;
31770;SDS011;18343;50.152;8.182;2023-12-20T16:45:10;9.52;;;4.72;;
31770;SDS011;18343;50.152;8.182;2023-12-20T16:48:13;9.88;;;3.00;;
31770;SDS011;18343;50.152;8.182;2023-12-20T16:51:17;7.60;;;3.10;;
31770;SDS011;18343;50.152;8.182;2023-12-20T16:54:20;12.13;;;3.25;;
31770;SDS011;18343;50.152;8.182;2023-12-20T16:57:24;7.78;;;2.55;;
31770;SDS011;18343;50.152;8.182;2023-12-20T17:00:29;9.67;;;2.33;;
31770;SDS011;18343;50.152;8.182;2023-12-20T17:03:32;9.45;;;3.13;;
31770;SDS011;18343;50.152;8.182;2023-12-20T17:06:36;11.10;;;2.77;;
31770;SDS011;18343;50.152;8.182;2023-12-20T17:09:40;11.52;;;3.25;;
31770;SDS011;18343;50.152;8.182;2023-12-20T17:12:44;14.07;;;2.97;;
31770;SDS011;18343;50.152;8.182;2023-12-20T17:15:49;7.28;;;3.13;;
31770;SDS011;18343;50.152;8.182;2023-12-20T17:21:55;10.23;;;2.53;;
31770;SDS011;18343;50.152;8.182;2023-12-20T17:24:58;9.15;;;3.33;;
31770;SDS011;18343;50.152;8.182;2023-12-20T17:28:02;8.10;;;4.05;;
31770;SDS011;18343;50.152;8.182;2023-12-20T17:34:14;10.27;;;3.72;;
31770;SDS011;18343;50.152;8.182;2023-12-20T17:37:18;9.70;;;4.75;;
31770;SDS011;18343;50.152;8.182;2023-12-20T17:40:21;6.57;;;4.40;;
31770;SDS011;18343;50.152;8.182;2023-12-20T17:43:25;9.73;;;4.23;;
31770;SDS011;18343;50.152;8.182;2023-12-20T17:46:30;7.20;;;3.83;;
31770;SDS011;18343;50.152;8.182;2023-12-20T17:49:33;10.43;;;3.60;;
31770;SDS011;18343;50.152;8.182;2023-12-20T17:52:37;6.87;;;3.93;;
31770;SDS011;18343;50.152;8.182;2023-12-20T17:55:41;6.93;;;3.85;;
31770;SDS011;18343;50.152;8.182;2023-12-20T17:58:44;8.45;;;3.92;;
31770;SDS011;18343;50.152;8.182;2023-12-20T18:01:49;6.53;;;4.47;;
31770;SDS011;18343;50.152;8.182;2023-12-20T18:04:53;12.45;;;4.47;;
31770;SDS011;18343;50.152;8.182;2023-12-20T18:07:57;7.65;;;4.18;;
31770;SDS011;18343;50.152;8.182;2023-12-20T18:11:00;8.68;;;4.60;;
31770;SDS011;18343;50.152;8.182;2023-12-20T18:14:04;11.60;;;5.10;;
31770;SDS011;18343;50.152;8.182;2023-12-20T18:17:14;12.35;;;4.90;;
31770;SDS011;18343;50.152;8.182;2023-12-20T18:20:28;8.32;;;5.00;;
31770;SDS011;18343;50.152;8.182;2023-12-20T18:23:31;10.33;;;4.17;;
31770;SDS011;18343;50.152;8.182;2023-12-20T18:26:35;13.30;;;3.28;;
31770;SDS011;18343;50.152;8.182;2023-12-20T18:29:38;11.63;;;3.10;;
31770;SDS011;18343;50.152;8.182;2023-12-20T18:32:43;9.68;;;3.00;;
31770;SDS011;18343;50.152;8.182;2023-12-20T18:35:47;9.82;;;3.38;;
31770;SDS011;18343;50.152;8.182;2023-12-20T18:38:51;7.70;;;2.85;;
31770;SDS011;18343;50.152;8.182;2023-12-20T18:41:55;10.68;;;3.03;;